Hyundai No.107 — A8CT4 — position and weather

sailwx.info

Track history (hours):
 
Tides and Currents Weather Stations Pressure Air Temp Water Temp Dewpoint Dewpoint Depression Visibility Wind Speed Wind Dir Waves Ship Positions

Hyundai No.107

Last reported at 2014-Jul-20 20:04 UTC. Time now 2014-Jul-31 19:38 UTC.
Position N 35°58' E 120°36'.
Warning: this ship's position is 10 days out of date.

Length 184 m; draft 8 m.

Type: Cargo ship. MMSI: 636011980.

Date/timePositionNaut miles runAvg speedWind from/ knotsBaromVisibWave heightAir tempDewpointWater temp
2014-Jul-20 20:04N 35°58' E 120°36'713.9
2014-Jul-20 19:33N 35°60' E 120°27'10 0.8
2014-Jul-20 06:04N 36°02' E 120°15'5 9.9
2014-Jul-20 05:33N 36°01' E 120°21'8 7.6
2014-Jul-20 04:33N 35°60' E 120°30'21 2.3
2014-Jul-19 19:17N 35°54' E 120°55'0 0.0
2014-Jul-19 17:23N 35°54' E 120°55'0 0.0
2014-Jul-19 12:23N 35°54' E 120°55'2 0.8
2014-Jul-19 09:16N 35°55' E 120°57'1311.0
2014-Jul-19 08:05N 36°01' E 121°12'1413.8
2014-Jul-19 07:06N 36°04' E 121°28'813.9
2014-Jul-19 06:33N 36°05' E 121°37'2914.2
2014-Jul-19 04:30N 36°12' E 122°13'3514.8
2014-Jul-19 02:10N 36°19' E 122°55'  
Track history (hours):
 
Tides and Currents Weather Stations Pressure Air Temp Water Temp Dewpoint Dewpoint Depression Visibility Wind Speed Wind Dir Waves Ship Positions

Hyundai No.107

Last reported at 2014-Jul-20 20:04 UTC. Time now 2014-Jul-31 19:38 UTC.
Position N 35°58' E 120°36'.
Warning: this ship's position is 10 days out of date.

Length 184 m; draft 8 m.

Type: Cargo ship. MMSI: 636011980.

Date/timePositionNaut miles runAvg speedWind from/ knotsBaromVisibWave heightAir tempDewpointWater temp
2014-Jul-20 20:04N 35°58' E 120°36'713.9
2014-Jul-20 19:33N 35°60' E 120°27'10 0.8
2014-Jul-20 06:04N 36°02' E 120°15'5 9.9
2014-Jul-20 05:33N 36°01' E 120°21'8 7.6
2014-Jul-20 04:33N 35°60' E 120°30'21 2.3
2014-Jul-19 19:17N 35°54' E 120°55'0 0.0
2014-Jul-19 17:23N 35°54' E 120°55'0 0.0
2014-Jul-19 12:23N 35°54' E 120°55'2 0.8
2014-Jul-19 09:16N 35°55' E 120°57'1311.0
2014-Jul-19 08:05N 36°01' E 121°12'1413.8
2014-Jul-19 07:06N 36°04' E 121°28'813.9
2014-Jul-19 06:33N 36°05' E 121°37'2914.2
2014-Jul-19 04:30N 36°12' E 122°13'3514.8
2014-Jul-19 02:10N 36°19' E 122°55'  

Dump ship's entire track history